Airfield :
LOGIN :

Register | Disclaimer

   EN    FR    IT 

 










Legend :    VFR   Marginal VFR   IFR   Intensive IFR   Very Intensive IFR
Visi :
Ceiling :
>= 8 km
>= 3000ft
5 to 8 km
1000 to 3000 ft
1500m to 5 km
500 to 1000 ft
800 to 1500m
200 to 500 ft
< 800m
< 200 ft
Symbols :   Thunderstorms  Fog  Heavy snow  Heavy precipitations  Wind > 20 kt
SIGMETs :     Misc.  Thunderstorms  Icing  Turbulence  Mountain Waves  Volcanic Ashes






- Airport Elevation : 401 ft
- IATA code : LEQ


EGHC - Land's End

CURRENT METAR :
  • 191550Z 18012KT 4000 RA FEW004 SCT005 BKN012 10/09 Q1008

EXPIRED METARs :
  • 191520Z 17019KT 5000 RA FEW005 BKN012 10/09 Q1008
  • 191450Z 18021KT 9000 RA FEW005 BKN020 10/09 Q1009
  • 191420Z 18019KT 6000 RA FEW006 BKN020 10/09 Q1009
  • 191350Z 18018KT 8000 -RA FEW006 BKN020 10/09 Q1009
  • 191320Z 18018KT 7000 RA FEW006 BKN018 10/09 Q1009

TAF AMD TAF EGHC
Valid from the 19 at 15:00 until the 19 at 18:00 UTC


191554Z 1915/1918 18020KT 9999 SCT020
TEMPO 1915/1918 18023G33KT 4000 RA BKN008



MET'MAP, your aeronautical weather chart ! - Copyright ORBIFLY December 2007 - Disclaimer

ORBIFLY MET'MAP TEAM :

Programming & Development : Alexandra Zaïnal
Concept & Development : Baudouin d'Aumeries
Co-Development & Prog : Marc-Olivier Méhu
Technical & hardware support : Manuel Goepfert

Contact : metmap@orbifly.com




SOURCES & CREDITS :

   NOAA